PWSweather.com
Personal Weather Stations
Station Observations
CANDIOTINO
Barrio Candioti Norte, Santa FeAR 3000

Barrio Candioti NorteSanta FeAR 3000

Lat: -31.632778, Lon: -60.695556

Elevation: 69

Station Type: WH-1081

http://www.eltiempoensantafe.com.ar

High Low Average
Temperature 77.9°F25.5°C 64.6°F18.1°C 71.1°F21.7°C
Dew Point 63.7°F17.6°C 47.3°F8.5°C 54.6°F12.6°C
Winds 17.4 mph 28.0 kmh Calm Calm 8.0 mph SSE12.9 kmh SSE
Wind Gusts 25.1 mph40.4 kmh 2.2 mph3.5 kmh 15.0 mph24.1 kmh
Humidity 91% 34% 58%
Pressure 30.04 in1017.3 mb 29.73 in1006.8 mb -
Precipitation 0.32 in8.1 mm - -
Hour Temp Dew Point Humidity Winds Wind Gusts Pressure Precip Precip Rate Daily Precip Total
12:00 AM 71.6°F22.0°C 60.5°F15.8°C 68% 5.4 mph SE8.7 kmh SE 8.3 mph13.4 kmh 29.73 in1006.8 mb 0.00 in0.0 mm 0.00 in0.0 mm 0.00 in0.0 mm
12:15 AM 71.4°F21.9°C 60.7°F15.9°C 69% 1.6 mph SE2.6 kmh SE 6.0 mph9.7 kmh 29.73 in1006.8 mb 0.00 in0.0 mm 0.00 in0.0 mm 0.00 in0.0 mm
12:30 AM 71.4°F21.9°C 60.7°F15.9°C 69% 0.7 mph SE1.1 kmh SE 2.2 mph3.5 kmh 29.74 in1007.1 mb 0.00 in0.0 mm 0.00 in0.0 mm 0.00 in0.0 mm
12:45 AM 72.1°F22.3°C 60.6°F15.9°C 67% 1.6 mph SSE2.6 kmh SSE 3.8 mph6.1 kmh 29.74 in1007.1 mb 0.00 in0.0 mm 0.00 in0.0 mm 0.00 in0.0 mm
01:00 AM 72.1°F22.3°C 60.2°F15.7°C 66% 2.2 mph S3.5 kmh S 3.8 mph6.1 kmh 29.73 in1006.8 mb 0.00 in0.0 mm 0.00 in0.0 mm 0.00 in0.0 mm
01:15 AM 72.3°F22.4°C 59.0°F15.0°C 63% 1.6 mph S2.6 kmh S 3.1 mph5.0 kmh 29.73 in1006.8 mb 0.00 in0.0 mm 0.00 in0.0 mm 0.00 in0.0 mm
01:30 AM 72.1°F22.3°C 58.0°F14.4°C 61% 0.7 mph WSW1.1 kmh WSW 3.1 mph5.0 kmh 29.74 in1007.1 mb 0.00 in0.0 mm 0.00 in0.0 mm 0.00 in0.0 mm
01:45 AM 72.5°F22.5°C 56.4°F13.6°C 57% Calm Calm 2.2 mph3.5 kmh 29.74 in1007.1 mb 0.00 in0.0 mm 0.00 in0.0 mm 0.00 in0.0 mm
02:00 AM 72.5°F22.5°C 56.4°F13.6°C 57% Calm Calm 3.8 mph6.1 kmh 29.74 in1007.1 mb 0.00 in0.0 mm 0.00 in0.0 mm 0.00 in0.0 mm
02:15 AM 72.3°F22.4°C 57.7°F14.3°C 60% 0.7 mph W1.1 kmh W 3.1 mph5.0 kmh 29.75 in1007.5 mb 0.00 in0.0 mm 0.00 in0.0 mm 0.00 in0.0 mm
02:30 AM 72.5°F22.5°C 57.9°F14.4°C 60% 3.8 mph SW6.1 kmh SW 12.1 mph19.5 kmh 29.77 in1008.1 mb 0.00 in0.0 mm 0.00 in0.0 mm 0.00 in0.0 mm
02:45 AM 71.8°F22.1°C 59.4°F15.2°C 65% 6.0 mph SSW9.7 kmh SSW 10.7 mph17.2 kmh 29.78 in1008.5 mb 0.00 in0.0 mm 0.00 in0.0 mm 0.00 in0.0 mm
03:00 AM 70.9°F21.6°C 61.8°F16.6°C 73% 12.1 mph SW19.5 kmh SW 25.1 mph40.4 kmh 29.80 in1009.1 mb 0.01 in0.3 mm 0.01 in0.3 mm 0.01 in0.3 mm
03:15 AM 66.0°F18.9°C 62.4°F16.9°C 88% 8.3 mph S13.4 kmh S 23.5 mph37.8 kmh 29.80 in1009.1 mb 0.24 in6.1 mm 0.92 in23.4 mm 0.24 in6.1 mm
03:30 AM 65.8°F18.8°C 63.2°F17.3°C 91% 11.4 mph SSE18.3 kmh SSE 22.8 mph36.7 kmh 29.81 in1009.5 mb 0.32 in8.1 mm 0.32 in8.1 mm 0.32 in8.1 mm
03:45 AM 66.7°F19.3°C 63.4°F17.4°C 89% 9.2 mph S14.8 kmh S 14.5 mph23.3 kmh 29.81 in1009.5 mb 0.32 in8.1 mm 0.00 in0.0 mm 0.32 in8.1 mm
04:00 AM 67.3°F19.6°C 63.6°F17.6°C 88% 3.1 mph S5.0 kmh S 10.7 mph17.2 kmh 29.82 in1009.8 mb 0.27 in6.9 mm 0.00 in0.0 mm 0.32 in8.1 mm
04:15 AM 68.0°F20.0°C 63.3°F17.4°C 85% 5.4 mph S8.7 kmh S 16.8 mph27.0 kmh 29.81 in1009.5 mb 0.08 in2.0 mm 0.00 in0.0 mm 0.32 in8.1 mm
04:30 AM 68.4°F20.2°C 61.6°F16.4°C 79% 9.2 mph S14.8 kmh S 15.9 mph25.6 kmh 29.82 in1009.8 mb 0.00 in0.0 mm 0.00 in0.0 mm 0.32 in8.1 mm
04:45 AM 68.2°F20.1°C 61.1°F16.2°C 78% 4.5 mph S7.2 kmh S 14.5 mph23.3 kmh 29.82 in1009.8 mb 0.00 in0.0 mm 0.00 in0.0 mm 0.32 in8.1 mm
05:00 AM 68.0°F20.0°C 62.0°F16.7°C 81% 6.0 mph SSE9.7 kmh SSE 13.6 mph21.9 kmh 29.83 in1010.2 mb 0.00 in0.0 mm 0.00 in0.0 mm 0.32 in8.1 mm
05:15 AM 68.2°F20.1°C 62.8°F17.1°C 83% 6.0 mph SSE9.7 kmh SSE 9.2 mph14.8 kmh 29.82 in1009.8 mb 0.00 in0.0 mm 0.00 in0.0 mm 0.32 in8.1 mm
05:30 AM 67.8°F19.9°C 63.2°F17.3°C 85% 4.5 mph SSE7.2 kmh SSE 9.2 mph14.8 kmh 29.82 in1009.8 mb 0.00 in0.0 mm 0.00 in0.0 mm 0.32 in8.1 mm
05:45 AM 67.6°F19.8°C 63.3°F17.4°C 86% 3.8 mph SE6.1 kmh SE 10.7 mph17.2 kmh 29.80 in1009.1 mb 0.00 in0.0 mm 0.00 in0.0 mm 0.32 in8.1 mm
06:00 AM 67.8°F19.9°C 63.5°F17.5°C 86% 4.5 mph SSE7.2 kmh SSE 7.6 mph12.2 kmh 29.84 in1010.5 mb 0.00 in0.0 mm 0.00 in0.0 mm 0.32 in8.1 mm
06:15 AM 68.0°F20.0°C 63.7°F17.6°C 86% 5.4 mph SE8.7 kmh SE 11.4 mph18.3 kmh 29.83 in1010.2 mb 0.00 in0.0 mm 0.00 in0.0 mm 0.32 in8.1 mm
06:30 AM 68.0°F20.0°C 63.0°F17.2°C 84% 6.0 mph S9.7 kmh S 13.0 mph20.9 kmh 29.84 in1010.5 mb 0.00 in0.0 mm 0.00 in0.0 mm 0.32 in8.1 mm
06:45 AM 68.4°F20.2°C 63.7°F17.6°C 85% 3.1 mph S5.0 kmh S 7.6 mph12.2 kmh 29.86 in1011.2 mb 0.00 in0.0 mm 0.00 in0.0 mm 0.32 in8.1 mm
07:00 AM 68.2°F20.1°C 63.5°F17.5°C 85% 3.8 mph SSE6.1 kmh SSE 15.2 mph24.5 kmh 29.87 in1011.5 mb 0.00 in0.0 mm 0.00 in0.0 mm 0.32 in8.1 mm
07:15 AM 67.8°F19.9°C 63.2°F17.3°C 85% 12.1 mph SW19.5 kmh SW 18.3 mph29.5 kmh 29.87 in1011.5 mb 0.00 in0.0 mm 0.00 in0.0 mm 0.32 in8.1 mm
07:30 AM 67.1°F19.5°C 61.8°F16.6°C 83% 9.8 mph SSE15.8 kmh SSE 17.4 mph28.0 kmh 29.88 in1011.9 mb 0.00 in0.0 mm 0.00 in0.0 mm 0.32 in8.1 mm
07:45 AM 67.3°F19.6°C 60.6°F15.9°C 79% 13.6 mph S21.9 kmh S 19.7 mph31.7 kmh 29.89 in1012.2 mb 0.00 in0.0 mm 0.00 in0.0 mm 0.32 in8.1 mm
08:00 AM 67.6°F19.8°C 60.9°F16.1°C 79% 13.0 mph S20.9 kmh S 19.7 mph31.7 kmh 29.89 in1012.2 mb 0.00 in0.0 mm 0.00 in0.0 mm 0.32 in8.1 mm
08:15 AM 68.0°F20.0°C 60.5°F15.8°C 77% 17.4 mph S28.0 kmh S 24.4 mph39.3 kmh 29.90 in1012.5 mb 0.00 in0.0 mm 0.00 in0.0 mm 0.32 in8.1 mm
08:30 AM 68.0°F20.0°C 60.5°F15.8°C 77% 17.4 mph S28.0 kmh S 24.4 mph39.3 kmh 29.91 in1012.9 mb 0.00 in0.0 mm 0.00 in0.0 mm 0.32 in8.1 mm
08:45 AM 68.0°F20.0°C 60.5°F15.8°C 77% 17.4 mph S28.0 kmh S 24.4 mph39.3 kmh 29.92 in1013.2 mb 0.00 in0.0 mm 0.00 in0.0 mm 0.32 in8.1 mm
09:00 AM 69.8°F21.0°C 58.4°F14.7°C 67% 13.6 mph SSE21.9 kmh SSE 19.0 mph30.6 kmh 29.92 in1013.2 mb 0.00 in0.0 mm 0.00 in0.0 mm 0.32 in8.1 mm
09:15 AM 69.8°F21.0°C 58.4°F14.7°C 67% 13.6 mph SSE21.9 kmh SSE 19.0 mph30.6 kmh 29.92 in1013.2 mb 0.00 in0.0 mm 0.00 in0.0 mm 0.32 in8.1 mm
09:30 AM 70.3°F21.3°C 57.2°F14.0°C 63% 13.0 mph ESE20.9 kmh ESE 19.7 mph31.7 kmh 29.92 in1013.2 mb 0.00 in0.0 mm 0.00 in0.0 mm 0.32 in8.1 mm
09:45 AM 70.3°F21.3°C 56.7°F13.7°C 62% 9.2 mph S14.8 kmh S 13.0 mph20.9 kmh 29.94 in1013.9 mb 0.00 in0.0 mm 0.00 in0.0 mm 0.32 in8.1 mm
10:00 AM 71.1°F21.7°C 56.5°F13.6°C 60% 9.8 mph SSE15.8 kmh SSE 18.3 mph29.5 kmh 29.94 in1013.9 mb 0.00 in0.0 mm 0.00 in0.0 mm 0.32 in8.1 mm
10:15 AM 71.1°F21.7°C 56.5°F13.6°C 60% 9.8 mph SSE15.8 kmh SSE 14.5 mph23.3 kmh 29.95 in1014.2 mb 0.00 in0.0 mm 0.00 in0.0 mm 0.32 in8.1 mm
10:30 AM 71.1°F21.7°C 56.5°F13.6°C 60% 9.8 mph SSE15.8 kmh SSE 14.5 mph23.3 kmh 29.95 in1014.2 mb 0.00 in0.0 mm 0.00 in0.0 mm 0.32 in8.1 mm
10:45 AM 72.9°F22.7°C 54.8°F12.7°C 53% 12.1 mph S19.5 kmh S 17.4 mph28.0 kmh 29.96 in1014.6 mb 0.00 in0.0 mm 0.00 in0.0 mm 0.32 in8.1 mm
11:00 AM 72.7°F22.6°C 54.1°F12.3°C 52% 11.4 mph S18.3 kmh S 17.4 mph28.0 kmh 29.96 in1014.6 mb 0.00 in0.0 mm 0.00 in0.0 mm 0.32 in8.1 mm
11:15 AM 72.9°F22.7°C 55.3°F12.9°C 54% 9.2 mph SSW14.8 kmh SSW 15.2 mph24.5 kmh 29.97 in1014.9 mb 0.00 in0.0 mm 0.00 in0.0 mm 0.32 in8.1 mm
11:30 AM 72.3°F22.4°C 53.2°F11.8°C 51% 12.1 mph SSE19.5 kmh SSE 17.4 mph28.0 kmh 29.97 in1014.9 mb 0.00 in0.0 mm 0.00 in0.0 mm 0.32 in8.1 mm
11:45 AM 72.9°F22.7°C 54.2°F12.3°C 52% 9.2 mph SSW14.8 kmh SSW 13.6 mph21.9 kmh 29.98 in1015.2 mb 0.00 in0.0 mm 0.00 in0.0 mm 0.32 in8.1 mm
12:00 PM 72.7°F22.6°C 52.4°F11.3°C 49% 10.7 mph S17.2 kmh S 14.5 mph23.3 kmh 29.97 in1014.9 mb 0.00 in0.0 mm 0.00 in0.0 mm 0.32 in8.1 mm
12:15 PM 73.6°F23.1°C 53.3°F11.8°C 49% 6.0 mph W9.7 kmh W 13.6 mph21.9 kmh 29.98 in1015.2 mb 0.00 in0.0 mm 0.00 in0.0 mm 0.32 in8.1 mm
12:30 PM 74.3°F23.5°C 52.2°F11.2°C 46% 11.4 mph S18.3 kmh S 15.2 mph24.5 kmh 29.98 in1015.2 mb 0.00 in0.0 mm 0.00 in0.0 mm 0.32 in8.1 mm
12:45 PM 73.2°F22.9°C 49.4°F9.7°C 43% 9.2 mph SSE14.8 kmh SSE 15.9 mph25.6 kmh 29.98 in1015.2 mb 0.00 in0.0 mm 0.00 in0.0 mm 0.32 in8.1 mm
01:00 PM 73.8°F23.2°C 51.7°F10.9°C 46% 6.9 mph S11.1 kmh S 13.6 mph21.9 kmh 29.98 in1015.2 mb 0.00 in0.0 mm 0.00 in0.0 mm 0.32 in8.1 mm
01:15 PM 75.2°F24.0°C 51.8°F11.0°C 44% 9.8 mph S15.8 kmh S 16.8 mph27.0 kmh 29.98 in1015.2 mb 0.00 in0.0 mm 0.00 in0.0 mm 0.32 in8.1 mm
01:30 PM 73.6°F23.1°C 50.4°F10.2°C 44% 8.3 mph S13.4 kmh S 19.7 mph31.7 kmh 29.97 in1014.9 mb 0.00 in0.0 mm 0.00 in0.0 mm 0.32 in8.1 mm
01:45 PM 73.8°F23.2°C 50.5°F10.3°C 44% 9.8 mph S15.8 kmh S 17.4 mph28.0 kmh 29.97 in1014.9 mb 0.00 in0.0 mm 0.00 in0.0 mm 0.32 in8.1 mm
02:00 PM 74.1°F23.4°C 47.6°F8.7°C 39% 10.7 mph S17.2 kmh S 15.2 mph24.5 kmh 29.97 in1014.9 mb 0.00 in0.0 mm 0.00 in0.0 mm 0.32 in8.1 mm
02:15 PM 74.8°F23.8°C 47.6°F8.7°C 38% 12.1 mph SSE19.5 kmh SSE 16.8 mph27.0 kmh 29.97 in1014.9 mb 0.00 in0.0 mm 0.00 in0.0 mm 0.32 in8.1 mm
02:30 PM 74.8°F23.8°C 50.9°F10.5°C 43% 11.4 mph NNE18.3 kmh NNE 19.7 mph31.7 kmh 29.96 in1014.6 mb 0.00 in0.0 mm 0.00 in0.0 mm 0.32 in8.1 mm
02:45 PM 73.4°F23.0°C 50.2°F10.1°C 44% 9.2 mph S14.8 kmh S 19.7 mph31.7 kmh 29.96 in1014.6 mb 0.00 in0.0 mm 0.00 in0.0 mm 0.32 in8.1 mm
03:00 PM 73.9°F23.3°C 50.7°F10.4°C 44% 9.2 mph S14.8 kmh S 14.5 mph23.3 kmh 29.96 in1014.6 mb 0.00 in0.0 mm 0.00 in0.0 mm 0.32 in8.1 mm
03:15 PM 75.6°F24.2°C 50.2°F10.1°C 41% 7.6 mph SSE12.2 kmh SSE 15.9 mph25.6 kmh 29.96 in1014.6 mb 0.00 in0.0 mm 0.00 in0.0 mm 0.32 in8.1 mm
03:30 PM 76.5°F24.7°C 50.4°F10.2°C 40% 9.2 mph S14.8 kmh S 15.2 mph24.5 kmh 29.96 in1014.6 mb 0.00 in0.0 mm 0.00 in0.0 mm 0.32 in8.1 mm
03:45 PM 76.3°F24.6°C 50.9°F10.5°C 41% 9.8 mph E15.8 kmh E 13.6 mph21.9 kmh 29.95 in1014.2 mb 0.00 in0.0 mm 0.00 in0.0 mm 0.32 in8.1 mm
04:00 PM 77.0°F25.0°C 48.0°F8.9°C 36% 11.4 mph SSE18.3 kmh SSE 18.3 mph29.5 kmh 29.94 in1013.9 mb 0.00 in0.0 mm 0.00 in0.0 mm 0.32 in8.1 mm
04:15 PM 76.5°F24.7°C 50.4°F10.2°C 40% 7.6 mph SE12.2 kmh SE 15.9 mph25.6 kmh 29.94 in1013.9 mb 0.00 in0.0 mm 0.00 in0.0 mm 0.32 in8.1 mm
04:30 PM 74.8°F23.8°C 49.6°F9.8°C 41% 6.0 mph SSE9.7 kmh SSE 16.8 mph27.0 kmh 29.94 in1013.9 mb 0.00 in0.0 mm 0.00 in0.0 mm 0.32 in8.1 mm
04:45 PM 75.9°F24.4°C 49.2°F9.6°C 39% 6.9 mph SSE11.1 kmh SSE 17.4 mph28.0 kmh 29.94 in1013.9 mb 0.00 in0.0 mm 0.00 in0.0 mm 0.32 in8.1 mm
05:00 PM 77.9°F25.5°C 48.8°F9.3°C 36% 9.8 mph SSW15.8 kmh SSW 13.6 mph21.9 kmh 29.94 in1013.9 mb 0.00 in0.0 mm 0.00 in0.0 mm 0.32 in8.1 mm
05:15 PM 77.4°F25.2°C 47.6°F8.7°C 35% 9.2 mph SSE14.8 kmh SSE 16.8 mph27.0 kmh 29.94 in1013.9 mb 0.00 in0.0 mm 0.00 in0.0 mm 0.32 in8.1 mm
05:30 PM 77.9°F25.5°C 47.3°F8.5°C 34% 9.2 mph S14.8 kmh S 19.0 mph30.6 kmh 29.94 in1013.9 mb 0.00 in0.0 mm 0.00 in0.0 mm 0.32 in8.1 mm
05:45 PM 77.9°F25.5°C 48.1°F8.9°C 35% 9.2 mph SSE14.8 kmh SSE 14.5 mph23.3 kmh 29.93 in1013.5 mb 0.00 in0.0 mm 0.00 in0.0 mm 0.32 in8.1 mm
06:00 PM 77.2°F25.1°C 48.2°F9.0°C 36% 13.0 mph S20.9 kmh S 17.4 mph28.0 kmh 29.93 in1013.5 mb 0.00 in0.0 mm 0.00 in0.0 mm 0.32 in8.1 mm
06:15 PM 77.0°F25.0°C 48.0°F8.9°C 36% 9.8 mph S15.8 kmh S 15.9 mph25.6 kmh 29.93 in1013.5 mb 0.00 in0.0 mm 0.00 in0.0 mm 0.32 in8.1 mm
06:30 PM 77.0°F25.0°C 49.5°F9.7°C 38% 9.8 mph SE15.8 kmh SE 14.5 mph23.3 kmh 29.93 in1013.5 mb 0.00 in0.0 mm 0.00 in0.0 mm 0.32 in8.1 mm
06:45 PM 76.5°F24.7°C 49.0°F9.4°C 38% 9.8 mph SSE15.8 kmh SSE 13.6 mph21.9 kmh 29.94 in1013.9 mb 0.00 in0.0 mm 0.00 in0.0 mm 0.32 in8.1 mm
07:00 PM 75.2°F24.0°C 47.9°F8.8°C 38% 9.2 mph S14.8 kmh S 15.9 mph25.6 kmh 29.94 in1013.9 mb 0.00 in0.0 mm 0.00 in0.0 mm 0.32 in8.1 mm
07:15 PM 74.3°F23.5°C 49.1°F9.5°C 41% 8.3 mph S13.4 kmh S 15.2 mph24.5 kmh 29.95 in1014.2 mb 0.00 in0.0 mm 0.00 in0.0 mm 0.32 in8.1 mm
07:30 PM 72.5°F22.5°C 48.8°F9.3°C 43% 9.2 mph SSE14.8 kmh SSE 20.6 mph33.2 kmh 29.95 in1014.2 mb 0.00 in0.0 mm 0.00 in0.0 mm 0.32 in8.1 mm
07:45 PM 71.2°F21.8°C 48.2°F9.0°C 44% 9.8 mph SSE15.8 kmh SSE 17.4 mph28.0 kmh 29.96 in1014.6 mb 0.00 in0.0 mm 0.00 in0.0 mm 0.32 in8.1 mm
08:00 PM 70.5°F21.4°C 48.8°F9.3°C 46% 7.6 mph SSE12.2 kmh SSE 15.2 mph24.5 kmh 29.96 in1014.6 mb 0.00 in0.0 mm 0.00 in0.0 mm 0.32 in8.1 mm
08:15 PM 69.8°F21.0°C 48.1°F8.9°C 46% 7.6 mph SE12.2 kmh SE 17.4 mph28.0 kmh 29.96 in1014.6 mb 0.00 in0.0 mm 0.00 in0.0 mm 0.32 in8.1 mm
08:30 PM 69.1°F20.6°C 49.1°F9.5°C 49% 7.6 mph S12.2 kmh S 13.6 mph21.9 kmh 29.97 in1014.9 mb 0.00 in0.0 mm 0.00 in0.0 mm 0.32 in8.1 mm
08:45 PM 68.7°F20.4°C 48.8°F9.3°C 49% 7.6 mph SE12.2 kmh SE 13.0 mph20.9 kmh 29.98 in1015.2 mb 0.00 in0.0 mm 0.00 in0.0 mm 0.32 in8.1 mm
09:00 PM 68.0°F20.0°C 48.7°F9.3°C 50% 9.2 mph SE14.8 kmh SE 17.4 mph28.0 kmh 29.99 in1015.6 mb 0.00 in0.0 mm 0.00 in0.0 mm 0.32 in8.1 mm
09:15 PM 67.8°F19.9°C 49.6°F9.8°C 52% 7.6 mph S12.2 kmh S 17.4 mph28.0 kmh 30.00 in1015.9 mb 0.00 in0.0 mm 0.00 in0.0 mm 0.32 in8.1 mm
09:30 PM 67.6°F19.8°C 49.4°F9.7°C 52% 9.2 mph SSE14.8 kmh SSE 16.8 mph27.0 kmh 30.01 in1016.3 mb 0.00 in0.0 mm 0.00 in0.0 mm 0.32 in8.1 mm
09:45 PM 67.1°F19.5°C 48.4°F9.1°C 51% 9.8 mph SE15.8 kmh SE 19.0 mph30.6 kmh 30.02 in1016.6 mb 0.00 in0.0 mm 0.00 in0.0 mm 0.32 in8.1 mm
10:00 PM 66.7°F19.3°C 48.1°F8.9°C 51% 6.0 mph SSE9.7 kmh SSE 16.8 mph27.0 kmh 30.02 in1016.6 mb 0.00 in0.0 mm 0.00 in0.0 mm 0.32 in8.1 mm
10:15 PM 66.2°F19.0°C 48.6°F9.2°C 53% 10.7 mph SSE17.2 kmh SSE 16.8 mph27.0 kmh 30.02 in1016.6 mb 0.00 in0.0 mm 0.00 in0.0 mm 0.32 in8.1 mm
10:30 PM 66.0°F18.9°C 48.9°F9.4°C 54% 7.6 mph SE12.2 kmh SE 13.0 mph20.9 kmh 30.03 in1016.9 mb 0.00 in0.0 mm 0.00 in0.0 mm 0.32 in8.1 mm
10:45 PM 65.5°F18.6°C 48.9°F9.4°C 55% 9.2 mph SE14.8 kmh SE 19.0 mph30.6 kmh 30.03 in1016.9 mb 0.00 in0.0 mm 0.00 in0.0 mm 0.32 in8.1 mm
11:00 PM 65.5°F18.6°C 47.9°F8.8°C 53% 7.6 mph ESE12.2 kmh ESE 19.7 mph31.7 kmh 30.04 in1017.3 mb 0.00 in0.0 mm 0.00 in0.0 mm 0.32 in8.1 mm
11:15 PM 65.3°F18.5°C 48.2°F9.0°C 54% 5.4 mph E8.7 kmh E 10.7 mph17.2 kmh 30.04 in1017.3 mb 0.00 in0.0 mm 0.00 in0.0 mm 0.32 in8.1 mm
11:30 PM 64.9°F18.3°C 47.4°F8.6°C 53% 9.2 mph SE14.8 kmh SE 15.9 mph25.6 kmh 30.03 in1016.9 mb 0.00 in0.0 mm 0.00 in0.0 mm 0.32 in8.1 mm
11:45 PM 64.6°F18.1°C 48.1°F8.9°C 55% 5.4 mph E8.7 kmh E 13.0 mph20.9 kmh 30.04 in1017.3 mb 0.00 in0.0 mm 0.00 in0.0 mm 0.32 in8.1 mm